Time;durP1;ratioP1;P1;durP2;ratioP2;P2;SDS_P1;SDS_P2;PMS_P1;PMS_P2;Temp;Humidity;BMP_temperature;BMP_pressure;BME280_temperature;BME280_humidity;BME280_pressure;Samples;Min_cycle;Max_cycle;Signal;HPM_P1;HPM_P2
2021/07/02 00:00:20;;;;;;;;;21.25;19.75;;;;;17.83;65.93;101006.09;5076693;27;68599;-58
2021/07/02 00:02:46;;;;;;;;;25.75;23.50;;;;;17.81;65.88;101002.78;5077312;27;45365;-59
2021/07/02 00:05:12;;;;;;;;;26.75;22.75;;;;;17.82;65.46;100996.44;5077480;27;45311;-59
2021/07/02 00:07:37;;;;;;;;;26.00;23.00;;;;;17.83;65.24;100997.25;5077472;27;45236;-59
2021/07/02 00:10:04;;;;;;;;;27.75;21.75;;;;;17.83;65.55;100994.59;5077323;27;45308;-59
2021/07/02 00:12:29;;;;;;;;;24.00;21.75;;;;;17.80;65.74;100995.78;5076096;28;45884;-59
2021/07/02 00:14:55;;;;;;;;;25.25;23.00;;;;;17.78;65.70;100997.78;5076305;27;72548;-60
2021/07/02 00:17:20;;;;;;;;;28.00;25.50;;;;;17.74;65.69;100999.97;5076379;27;65152;-58
2021/07/02 00:19:45;;;;;;;;;33.00;27.50;;;;;17.73;65.86;100997.47;5076085;27;65216;-59
2021/07/02 00:22:11;;;;;;;;;24.50;23.00;;;;;17.71;65.78;100996.81;5076075;27;72779;-59
2021/07/02 00:24:36;;;;;;;;;22.25;22.00;;;;;17.68;65.82;100997.16;5076849;27;50758;-59
2021/07/02 00:27:01;;;;;;;;;28.75;25.00;;;;;17.63;66.17;100993.19;5076312;27;65409;-59
2021/07/02 00:29:27;;;;;;;;;28.75;26.25;;;;;17.62;65.99;100999.50;5075578;28;45327;-60
2021/07/02 00:31:52;;;;;;;;;26.75;22.75;;;;;17.59;65.62;101002.50;5076749;27;45994;-59
2021/07/02 00:34:18;;;;;;;;;27.50;23.75;;;;;17.58;65.81;101000.84;5077040;27;45245;-59
2021/07/02 00:36:43;;;;;;;;;23.50;21.25;;;;;17.54;65.89;100996.88;5077152;27;45268;-59
2021/07/02 00:39:09;;;;;;;;;25.00;23.50;;;;;17.52;65.91;100998.06;5076177;27;65100;-59
2021/07/02 00:41:35;;;;;;;;;26.00;23.25;;;;;17.48;66.19;100994.91;5076595;27;45429;-59
2021/07/02 00:44:00;;;;;;;;;27.75;22.50;;;;;17.45;66.16;100997.91;5076429;27;45337;-59
2021/07/02 00:46:26;;;;;;;;;27.00;23.00;;;;;17.41;66.35;100996.59;5076055;27;68149;-59
2021/07/02 00:48:51;;;;;;;;;24.25;20.50;;;;;17.38;66.56;100986.31;5076759;28;45425;-59
2021/07/02 00:51:17;;;;;;;;;24.00;22.25;;;;;17.36;66.54;100991.78;5076558;28;45534;-59
2021/07/02 00:53:42;;;;;;;;;26.00;22.00;;;;;17.34;66.58;100994.63;5075420;28;45320;-59
2021/07/02 00:56:09;;;;;;;;;24.50;22.75;;;;;17.33;66.69;100992.97;5076893;27;45335;-59
2021/07/02 00:58:34;;;;;;;;;34.25;27.50;;;;;17.34;66.69;100991.13;5076717;27;45564;-59
2021/07/02 01:01:00;;;;;;;;;32.00;25.75;;;;;17.34;66.61;100996.44;5076393;27;49997;-58
2021/07/02 01:03:25;;;;;;;;;28.25;24.25;;;;;17.33;66.80;100990.31;5076568;27;45243;-58
2021/07/02 01:05:50;;;;;;;;;33.50;29.50;;;;;17.30;66.48;100985.31;5074442;28;63355;-60
2021/07/02 01:08:16;;;;;;;;;28.00;24.00;;;;;17.28;66.03;100987.31;5058145;28;49555;-59
2021/07/02 01:10:45;;;;;;;;;30.50;26.00;;;;;17.28;66.22;100986.47;5076404;27;45790;-60
2021/07/02 01:13:10;;;;;;;;;36.25;26.00;;;;;17.28;65.96;100994.44;5076130;27;49397;-59
2021/07/02 01:15:35;;;;;;;;;32.50;29.00;;;;;17.28;66.21;100986.47;5076386;27;45520;-59
2021/07/02 01:18:05;;;;;;;;;33.50;27.75;;;;;17.26;66.50;100977.84;5075451;27;70258;-59
2021/07/02 01:20:30;;;;;;;;;29.75;27.50;;;;;17.24;66.47;100991.31;5076024;27;53031;-59
2021/07/02 01:22:56;;;;;;;;;28.75;26.25;;;;;17.22;66.34;100988.00;5076128;27;53130;-59
2021/07/02 01:25:22;;;;;;;;;26.75;24.75;;;;;17.20;66.18;100980.22;5076468;27;45472;-59
2021/07/02 01:27:47;;;;;;;;;29.75;25.75;;;;;17.20;66.53;100980.22;5074552;28;56934;-59
2021/07/02 01:30:13;;;;;;;;;27.25;24.75;;;;;17.20;66.37;100974.06;5056923;28;73823;-60
2021/07/02 01:32:38;;;;;;;;;30.50;23.25;;;;;17.20;66.67;100968.75;5076201;27;45880;-59
2021/07/02 01:35:05;;;;;;;;;20.75;19.25;;;;;17.18;66.67;100976.91;5076358;27;45557;-59
2021/07/02 01:37:30;;;;;;;;;31.25;26.75;;;;;17.16;66.49;100981.53;5076126;27;45314;-59
2021/07/02 01:39:55;;;;;;;;;25.75;25.00;;;;;17.15;66.36;100979.03;5054546;27;70499;-60
2021/07/02 01:42:21;;;;;;;;;28.75;23.25;;;;;17.13;66.48;100976.56;4973386;28;45255;-58
2021/07/02 01:44:46;;;;;;;;;25.00;22.75;;;;;17.14;66.73;100980.03;4972801;28;64427;-59
2021/07/02 01:47:11;;;;;;;;;35.75;26.25;;;;;17.13;66.85;100968.59;4972747;28;62025;-59
2021/07/02 01:49:37;;;;;;;;;25.75;24.25;;;;;17.12;67.19;100966.94;4972210;28;74721;-60
2021/07/02 01:52:02;;;;;;;;;26.00;24.50;;;;;17.06;66.63;100968.44;4972495;28;65950;-59
2021/07/02 01:54:28;;;;;;;;;25.25;23.50;;;;;17.03;66.65;100973.25;4973393;28;45278;-59
2021/07/02 01:56:53;;;;;;;;;28.50;27.75;;;;;16.99;66.79;100969.28;4973737;28;66873;-58
2021/07/02 01:59:19;;;;;;;;;28.50;25.00;;;;;16.98;66.71;100973.75;4976216;28;45362;-59
2021/07/02 02:01:45;;;;;;;;;26.25;23.50;;;;;16.96;66.37;100975.75;4976156;28;45206;-59
2021/07/02 02:04:10;;;;;;;;;27.50;26.75;;;;;16.94;65.98;100975.06;4976459;28;45307;-60
2021/07/02 02:06:36;;;;;;;;;24.00;22.75;;;;;16.92;65.81;100983.19;4976370;28;45276;-59
2021/07/02 02:09:02;;;;;;;;;22.25;21.50;;;;;16.92;66.66;100977.88;4975958;28;46251;-60
2021/07/02 02:11:28;;;;;;;;;31.25;24.75;;;;;16.90;66.54;100984.38;4974700;28;45319;-59
2021/07/02 02:13:53;;;;;;;;;24.75;24.75;;;;;16.85;66.88;100982.19;4976238;28;45342;-58
2021/07/02 02:16:18;;;;;;;;;28.50;24.00;;;;;16.83;66.51;100978.88;4976179;28;45249;-59
2021/07/02 02:18:44;;;;;;;;;33.75;28.75;;;;;16.80;66.67;100971.25;4975033;28;66133;-59
2021/07/02 02:21:09;;;;;;;;;29.50;25.75;;;;;16.77;67.17;100977.72;4975396;28;65211;-59
2021/07/02 02:23:35;;;;;;;;;25.50;25.50;;;;;16.74;66.82;100975.41;4976144;28;45379;-58
2021/07/02 02:26:00;;;;;;;;;28.75;23.75;;;;;16.72;67.02;100974.75;4975482;28;54833;-59
2021/07/02 02:28:25;;;;;;;;;26.00;22.25;;;;;16.70;66.87;100971.41;4976012;28;45390;-59
2021/07/02 02:30:51;;;;;;;;;29.50;26.50;;;;;16.69;67.22;100967.09;4975813;28;45386;-59
2021/07/02 02:33:16;;;;;;;;;27.25;24.00;;;;;16.66;66.69;100964.78;4975447;28;57854;-59
2021/07/02 02:35:41;;;;;;;;;30.00;24.75;;;;;16.63;66.55;100962.47;4975132;28;61282;-59
2021/07/02 02:38:07;;;;;;;;;27.50;24.50;;;;;16.61;66.70;100951.19;4975102;28;65276;-59
2021/07/02 02:40:33;;;;;;;;;28.25;24.50;;;;;16.60;66.72;100952.19;4975840;28;45253;-59
2021/07/02 02:42:58;;;;;;;;;29.50;23.50;;;;;16.61;66.39;100951.19;4975168;28;57304;-60
2021/07/02 02:45:23;;;;;;;;;26.25;24.50;;;;;16.61;66.46;100957.34;4975790;28;45360;-59
2021/07/02 02:47:49;;;;;;;;;29.00;29.00;;;;;16.61;66.86;100959.16;4975236;28;59279;-60
2021/07/02 02:50:14;;;;;;;;;26.00;23.25;;;;;16.59;67.15;100956.66;4975647;28;45170;-58
2021/07/02 02:52:39;;;;;;;;;28.25;25.00;;;;;16.58;67.02;100964.78;4974954;28;65000;-59
2021/07/02 02:55:05;;;;;;;;;35.75;27.25;;;;;16.56;67.05;100951.69;4975604;28;45506;-58
2021/07/02 02:57:31;;;;;;;;;29.75;26.00;;;;;16.55;66.57;100954.50;4991703;28;45602;-59
2021/07/02 02:59:56;;;;;;;;;24.75;22.00;;;;;16.51;66.42;100948.69;4974612;28;68647;-59
2021/07/02 03:02:21;;;;;;;;;24.00;22.00;;;;;16.48;66.07;100946.38;4975653;28;45401;-59
2021/07/02 03:04:47;;;;;;;;;32.75;27.00;;;;;16.47;66.50;100950.84;4975541;28;45312;-59
2021/07/02 03:07:12;;;;;;;;;27.00;24.00;;;;;16.46;66.95;100954.47;4975215;28;46139;-59
2021/07/02 03:09:38;;;;;;;;;31.50;25.75;;;;;16.48;66.78;100957.00;4975274;28;45288;-59
2021/07/02 03:12:04;;;;;;;;;31.75;27.00;;;;;16.44;67.47;100948.50;4974818;28;60077;-59
2021/07/02 03:14:29;;;;;;;;;26.75;26.75;;;;;16.44;67.36;100950.34;4975574;28;45447;-59
2021/07/02 03:16:55;;;;;;;;;28.75;26.25;;;;;16.42;67.42;100949.69;4975402;28;45252;-58
2021/07/02 03:19:20;;;;;;;;;30.25;24.75;;;;;16.43;67.54;100952.16;4973546;28;52048;-59
2021/07/02 03:21:46;;;;;;;;;36.75;27.50;;;;;16.42;67.21;100955.84;4974852;28;58673;-60
2021/07/02 03:24:11;;;;;;;;;28.25;24.75;;;;;16.38;66.72;100949.19;4975325;28;45366;-59
2021/07/02 03:26:37;;;;;;;;;31.50;26.50;;;;;16.37;66.22;100949.34;4975080;28;45389;-60
2021/07/02 03:29:03;;;;;;;;;26.50;24.25;;;;;16.33;66.61;100946.22;4974557;28;60114;-59
2021/07/02 03:31:28;;;;;;;;;31.00;27.00;;;;;16.33;66.51;100946.22;4975342;28;45338;-59
2021/07/02 03:33:54;;;;;;;;;30.00;26.00;;;;;16.33;66.64;100946.22;4975157;28;45400;-59
2021/07/02 03:36:19;;;;;;;;;30.25;25.50;;;;;16.32;66.77;100945.38;4975052;28;45376;-58
2021/07/02 03:38:44;;;;;;;;;32.25;27.25;;;;;16.31;66.54;100941.06;4974832;28;45326;-59
2021/07/02 03:41:10;;;;;;;;;28.25;25.25;;;;;16.28;67.04;100941.38;4974219;28;62463;-59
2021/07/02 03:43:35;;;;;;;;;25.50;22.00;;;;;16.26;67.17;100948.66;4974391;28;60509;-59
2021/07/02 03:46:00;;;;;;;;;30.75;26.00;;;;;16.24;67.27;100952.50;4974114;28;66800;-59
2021/07/02 03:48:26;;;;;;;;;27.25;26.25;;;;;16.20;66.62;100956.44;4974338;28;62313;-59
2021/07/02 03:50:51;;;;;;;;;28.00;24.00;;;;;16.19;66.59;100949.50;4974438;28;57939;-59
2021/07/02 03:53:17;;;;;;;;;28.00;26.75;;;;;16.16;66.82;100950.66;4974174;28;65629;-60
2021/07/02 03:55:42;;;;;;;;;26.75;22.50;;;;;16.15;66.96;100957.78;4974449;28;55095;-59
2021/07/02 03:58:07;;;;;;;;;27.25;24.25;;;;;16.15;66.75;100954.31;4974670;28;45437;-59
2021/07/02 04:00:33;;;;;;;;;29.25;25.50;;;;;16.14;67.65;100955.28;4973969;28;65839;-59
2021/07/02 04:02:58;;;;;;;;;27.50;25.00;;;;;16.12;67.13;100954.63;4974625;28;53034;-60
2021/07/02 04:05:24;;;;;;;;;25.00;19.50;;;;;16.11;66.39;100958.28;4973743;28;72581;-60
2021/07/02 04:07:49;;;;;;;;;27.50;22.50;;;;;16.11;65.90;100959.09;4974728;28;45278;-58
2021/07/02 04:10:14;;;;;;;;;26.25;24.75;;;;;16.05;66.08;100949.13;4974844;28;45516;-59
2021/07/02 04:12:40;;;;;;;;;24.75;22.50;;;;;16.05;66.41;100949.13;4974831;28;45307;-59
2021/07/02 04:15:06;;;;;;;;;30.00;25.50;;;;;16.05;66.85;100956.25;4973976;28;64174;-59
2021/07/02 04:17:31;;;;;;;;;29.25;25.00;;;;;16.04;66.63;100962.56;4973388;28;45245;-60
2021/07/02 04:19:57;;;;;;;;;34.50;27.75;;;;;16.01;67.16;100969.00;4973684;28;45499;-58
2021/07/02 04:22:22;;;;;;;;;27.50;25.75;;;;;16.01;66.86;100958.38;4973952;28;62066;-58
2021/07/02 04:24:48;;;;;;;;;31.50;26.25;;;;;16.00;67.33;100956.72;4974390;28;46299;-59
2021/07/02 04:27:13;;;;;;;;;29.50;26.00;;;;;15.98;67.43;100958.72;4974428;28;45447;-59
2021/07/02 04:29:39;;;;;;;;;34.00;27.75;;;;;15.97;67.29;100967.66;4974586;28;45335;-60
2021/07/02 04:32:05;;;;;;;;;25.75;22.25;;;;;15.96;66.99;100973.94;4973579;28;68024;-60
2021/07/02 04:34:30;;;;;;;;;25.75;22.75;;;;;15.94;66.56;100968.81;4974444;28;46186;-59
2021/07/02 04:36:55;;;;;;;;;29.25;23.75;;;;;15.93;66.70;100972.44;4973742;28;62918;-59
2021/07/02 04:39:22;;;;;;;;;27.00;26.25;;;;;15.95;66.88;100980.22;4974403;28;45410;-60
2021/07/02 04:41:47;;;;;;;;;25.50;22.50;;;;;15.96;66.70;100982.75;4974479;28;45382;-59
2021/07/02 04:44:12;;;;;;;;;26.75;24.00;;;;;16.00;67.18;100977.94;4973464;28;67840;-59
2021/07/02 04:46:38;;;;;;;;;28.75;25.50;;;;;16.05;67.44;100986.22;4973934;28;52632;-59
2021/07/02 04:49:03;;;;;;;;;25.00;24.00;;;;;16.10;67.63;100980.47;4973509;28;59184;-59
2021/07/02 04:51:29;;;;;;;;;31.75;26.75;;;;;16.11;67.89;100977.63;4974601;28;45329;-60
2021/07/02 04:53:54;;;;;;;;;30.75;27.00;;;;;16.15;68.34;100975.50;4973262;28;69689;-59
2021/07/02 04:56:19;;;;;;;;;29.25;26.50;;;;;16.19;68.32;100982.13;4972773;28;50507;-59
2021/07/02 04:58:51;;;;;;;;;26.50;24.75;;;;;16.23;68.35;100974.69;4972179;28;63608;-59
2021/07/02 05:01:17;;;;;;;;;29.00;28.25;;;;;16.28;68.12;100983.00;4974242;28;45480;-60
2021/07/02 05:03:42;;;;;;;;;34.50;26.75;;;;;16.32;68.11;100989.63;4973884;28;45313;-59
2021/07/02 05:06:08;;;;;;;;;32.00;28.25;;;;;16.36;68.02;100990.13;4974077;28;45330;-58
2021/07/02 05:08:33;;;;;;;;;31.50;27.50;;;;;16.39;68.28;100988.00;4971849;28;61344;-59
2021/07/02 05:10:58;;;;;;;;;27.75;23.50;;;;;16.44;68.11;100985.66;4971634;28;67027;-59
2021/07/02 05:13:24;;;;;;;;;34.75;27.25;;;;;16.49;68.17;100982.53;4972487;28;46157;-58
2021/07/02 05:15:50;;;;;;;;;31.25;26.75;;;;;16.56;67.85;100983.53;4973873;28;45548;-58
2021/07/02 05:18:15;;;;;;;;;29.50;24.75;;;;;16.60;68.23;100979.56;4972861;28;45434;-59
2021/07/02 05:20:44;;;;;;;;;26.25;24.50;;;;;16.67;68.38;100985.00;4973492;28;45568;-59
2021/07/02 05:23:12;;;;;;;;;29.75;28.75;;;;;16.73;68.67;100989.66;4973935;28;46271;-60
2021/07/02 05:25:38;;;;;;;;;33.00;28.50;;;;;16.81;68.41;100985.34;4973481;28;45881;-59
2021/07/02 05:28:04;;;;;;;;;31.00;28.50;;;;;16.85;68.42;100981.38;4973779;28;45263;-59
2021/07/02 05:30:29;;;;;;;;;36.50;30.00;;;;;16.90;68.30;100982.53;4973709;28;45596;-60
2021/07/02 05:32:54;;;;;;;;;32.50;28.50;;;;;16.95;68.54;100978.53;4975483;28;64181;-58
2021/07/02 05:35:20;;;;;;;;;32.50;28.50;;;;;17.01;68.50;100981.38;4975636;28;65628;-58
2021/07/02 05:37:45;;;;;;;;;30.50;28.00;;;;;17.04;68.50;100981.03;4976295;28;45434;-59
2021/07/02 05:40:12;;;;;;;;;28.50;28.50;;;;;17.10;68.48;100984.88;4976441;28;45298;-59
2021/07/02 05:42:37;;;;;;;;;37.00;28.75;;;;;17.16;68.18;100986.00;4976167;28;46140;-59
2021/07/02 05:45:04;;;;;;;;;33.00;30.25;;;;;17.21;68.33;100975.72;4976243;28;46212;-58
2021/07/02 05:47:29;;;;;;;;;37.00;31.00;;;;;17.27;68.18;100974.19;4976451;28;45441;-59
2021/07/02 05:49:55;;;;;;;;;40.00;32.25;;;;;17.34;68.18;100975.19;4975673;28;58476;-58
2021/07/02 05:52:20;;;;;;;;;31.75;28.75;;;;;17.43;67.71;100986.63;4975365;28;68458;-59
2021/07/02 05:54:48;;;;;;;;;41.25;32.00;;;;;17.50;67.90;100976.94;4976098;28;45370;-59
2021/07/02 05:57:13;;;;;;;;;33.75;29.00;;;;;17.57;67.87;100990.41;4976333;28;45351;-59
2021/07/02 05:59:39;;;;;;;;;36.00;31.50;;;;;17.63;67.80;100985.22;4976062;28;45493;-59
2021/07/02 06:02:04;;;;;;;;;40.50;32.75;;;;;17.71;67.75;100988.84;4975444;28;62410;-58
2021/07/02 06:04:29;;;;;;;;;30.75;29.75;;;;;17.75;67.91;100983.00;4990564;28;69096;-58
2021/07/02 06:06:55;;;;;;;;;32.25;31.25;;;;;17.84;67.98;100994.44;4975667;28;56692;-59
2021/07/02 06:09:20;;;;;;;;;36.50;31.50;;;;;17.93;67.47;100989.91;4975171;28;66758;-59
2021/07/02 06:11:45;;;;;;;;;34.25;30.50;;;;;18.02;67.42;100988.06;4976041;28;46074;-58
2021/07/02 06:14:11;;;;;;;;;31.50;29.25;;;;;18.11;67.51;100989.69;4975450;28;63098;-59
2021/07/02 06:16:36;;;;;;;;;48.25;35.50;;;;;18.21;67.18;100992.94;4991308;28;45170;-59
2021/07/02 06:19:02;;;;;;;;;39.25;33.00;;;;;18.31;67.19;100987.41;4975428;28;53731;-59
2021/07/02 06:21:28;;;;;;;;;38.75;31.25;;;;;18.40;67.07;100990.84;4975189;28;68106;-59
2021/07/02 06:23:53;;;;;;;;;42.75;31.50;;;;;18.50;66.79;100991.44;4975967;28;45259;-58
2021/07/02 06:26:18;;;;;;;;;35.50;31.75;;;;;18.61;66.72;100992.84;4975438;28;61512;-58
2021/07/02 06:28:44;;;;;;;;;34.00;31.00;;;;;18.72;66.48;100994.25;4975961;28;45207;-58
2021/07/02 06:31:09;;;;;;;;;38.25;32.00;;;;;18.83;66.40;100993.00;4975596;28;46087;-58
2021/07/02 06:33:35;;;;;;;;;37.00;29.75;;;;;18.94;66.73;100981.94;4975906;28;45297;-59
2021/07/02 06:36:00;;;;;;;;;35.25;31.75;;;;;19.06;66.57;100989.50;4975912;28;45394;-58
2021/07/02 06:38:26;;;;;;;;;43.25;33.75;;;;;19.15;65.99;100984.94;4975791;28;45208;-59
2021/07/02 06:40:52;;;;;;;;;37.75;32.00;;;;;19.22;66.30;100981.38;4975645;28;46107;-59
2021/07/02 06:43:17;;;;;;;;;40.50;34.25;;;;;19.30;65.94;100976.97;4975432;28;45472;-59
2021/07/02 06:45:43;;;;;;;;;38.75;31.50;;;;;19.34;65.95;100980.94;4976048;28;45819;-59
2021/07/02 06:48:08;;;;;;;;;39.75;33.75;;;;;19.39;65.79;100978.50;4975916;28;45398;-59
2021/07/02 06:50:35;;;;;;;;;34.25;32.00;;;;;19.43;65.51;100980.63;4975458;28;45902;-59
2021/07/02 06:53:03;;;;;;;;;41.00;32.25;;;;;19.47;65.87;100981.09;4975691;28;45385;-59
2021/07/02 06:55:28;;;;;;;;;47.50;35.00;;;;;19.54;65.53;100989.19;4975660;28;45235;-59
2021/07/02 06:57:54;;;;;;;;;34.50;31.25;;;;;19.57;65.35;100991.50;4975569;28;45220;-59
2021/07/02 07:00:20;;;;;;;;;43.25;34.50;;;;;19.61;65.41;100991.94;4975138;28;46098;-59
2021/07/02 07:02:45;;;;;;;;;44.00;36.00;;;;;19.67;64.97;101000.00;4975265;28;45297;-58
2021/07/02 07:05:11;;;;;;;;;39.00;33.50;;;;;19.76;65.17;100997.25;4975367;28;45381;-60
2021/07/02 07:07:36;;;;;;;;;47.50;35.00;;;;;19.87;64.85;100996.78;4975499;28;45407;-58
2021/07/02 07:10:03;;;;;;;;;39.75;33.50;;;;;19.97;64.46;100993.84;4974411;28;74328;-59
2021/07/02 07:12:28;;;;;;;;;41.25;34.00;;;;;20.08;64.30;100992.53;4956605;28;45479;-59
2021/07/02 07:14:54;;;;;;;;;40.25;34.25;;;;;20.22;64.35;100993.50;4973719;28;45427;-59
2021/07/02 07:17:19;;;;;;;;;36.75;32.00;;;;;20.35;64.54;101000.81;4973340;28;52090;-58
2021/07/02 07:19:45;;;;;;;;;32.25;30.50;;;;;20.47;64.69;100996.63;4973360;28;45978;-58
2021/07/02 07:22:10;;;;;;;;;36.25;31.25;;;;;20.61;63.58;100987.75;4973760;28;45543;-59
2021/07/02 07:24:36;;;;;;;;;33.25;32.00;;;;;20.75;63.24;100996.69;4973485;28;58409;-58
2021/07/02 07:27:01;;;;;;;;;40.00;34.25;;;;;20.88;62.74;100996.00;4974195;28;61634;-59
2021/07/02 07:29:27;;;;;;;;;46.25;36.25;;;;;21.02;62.55;100996.09;4975067;28;45988;-58
2021/07/02 07:31:53;;;;;;;;;36.50;30.25;;;;;21.16;62.30;100995.19;4975215;28;45316;-58
2021/07/02 07:37:07;;;;;;;;;46.00;37.75;;;;;21.48;61.05;100998.25;4975410;28;45332;-59
2021/07/02 07:39:32;;;;;;;;;37.50;34.75;;;;;21.62;60.72;100995.69;4975061;28;46483;-59
2021/07/02 07:41:58;;;;;;;;;43.25;32.25;;;;;21.74;59.78;100991.41;4974463;28;67917;-59
2021/07/02 07:44:23;;;;;;;;;40.50;33.50;;;;;21.87;59.85;101001.34;5009497;28;57855;-59
2021/07/02 07:46:48;;;;;;;;;47.00;35.50;;;;;22.00;59.39;101005.06;5017827;28;45627;-59
2021/07/02 07:49:14;;;;;;;;;44.25;33.75;;;;;22.12;58.68;101008.81;4994879;28;45849;-60
2021/07/02 07:54:10;;;;;;;;;35.25;30.25;;;;;22.36;58.28;101010.13;4983429;28;45367;-59
2021/07/02 07:56:36;;;;;;;;;33.75;30.50;;;;;22.51;58.11;101017.19;4994430;28;56032;-60
2021/07/02 07:59:01;;;;;;;;;38.75;31.50;;;;;22.66;57.51;101020.50;5001005;27;62406;-59
2021/07/02 08:01:27;;;;;;;;;34.25;29.00;;;;;22.81;57.03;101014.94;4996751;28;53890;-60
2021/07/02 08:03:53;;;;;;;;;30.50;28.75;;;;;22.94;57.28;101011.44;4978513;28;53766;-60
2021/07/02 08:06:18;;;;;;;;;30.00;27.50;;;;;23.08;56.22;101017.59;4980011;28;45438;-59
2021/07/02 08:08:45;;;;;;;;;33.25;27.00;;;;;23.24;56.37;101005.66;4990364;28;45514;-59
2021/07/02 08:11:10;;;;;;;;;36.25;32.00;;;;;23.40;55.86;101007.06;4985900;28;45948;-59
2021/07/02 08:13:36;;;;;;;;;34.25;30.25;;;;;23.55;55.54;101009.50;4997082;28;45452;-59
2021/07/02 08:16:01;;;;;;;;;46.25;37.00;;;;;23.70;54.10;101013.78;5003897;27;45434;-59
2021/07/02 08:18:28;;;;;;;;;30.75;29.00;;;;;23.80;53.72;101003.44;4992149;28;45441;-60
2021/07/02 08:20:53;;;;;;;;;36.75;30.75;;;;;23.93;54.11;101015.13;4991501;28;45388;-59
2021/07/02 08:23:18;;;;;;;;;31.75;27.25;;;;;24.06;53.77;101009.72;4988264;27;45465;-59
2021/07/02 08:25:44;;;;;;;;;32.75;25.00;;;;;24.21;53.51;101020.19;4990772;28;62742;-59
2021/07/02 08:30:53;;;;;;;;;33.00;28.25;;;;;24.53;52.28;101014.81;4999440;28;46241;-59
2021/07/02 08:33:19;;;;;;;;;28.75;26.75;;;;;24.67;51.82;101018.22;5016483;27;61134;-59
2021/07/02 08:35:45;;;;;;;;;29.75;27.25;;;;;24.80;50.82;101022.69;5029050;28;45661;-59
2021/07/02 08:38:11;;;;;;;;;30.25;25.75;;;;;24.93;51.11;101019.06;5009245;28;45458;-59
2021/07/02 08:40:36;;;;;;;;;33.50;29.50;;;;;25.04;50.61;101020.22;5051225;28;45577;-59
2021/07/02 08:43:02;;;;;;;;;27.00;24.25;;;;;25.17;50.53;101019.28;5048177;27;52674;-59
2021/07/02 08:45:27;;;;;;;;;30.50;29.50;;;;;25.29;50.23;101019.34;5035940;27;45520;-60
2021/07/02 08:47:53;;;;;;;;;27.50;27.50;;;;;25.36;49.67;101019.31;5057402;27;62350;-60
2021/07/02 08:50:19;;;;;;;;;28.75;27.25;;;;;25.44;48.69;101016.31;5058646;27;45996;-60
2021/07/02 08:52:45;;;;;;;;;26.25;26.00;;;;;25.50;48.82;101015.44;5069875;28;45283;-60
2021/07/02 08:55:10;;;;;;;;;31.25;28.25;;;;;25.60;48.51;101015.75;5029229;28;61169;-59
2021/07/02 08:57:36;;;;;;;;;25.25;25.25;;;;;25.69;48.37;101012.75;5027320;27;46786;-59
2021/07/02 09:00:01;;;;;;;;;21.75;21.50;;;;;25.76;48.01;101008.13;4987255;27;45611;-60
2021/07/02 09:02:31;;;;;;;;;29.25;25.75;;;;;25.81;47.86;101015.50;4991184;28;45519;-59
2021/07/02 09:04:59;;;;;;;;;23.75;22.00;;;;;25.81;47.25;101002.03;4982986;28;45338;-59
2021/07/02 09:07:25;;;;;;;;;26.25;22.50;;;;;25.81;47.52;101008.25;4974783;28;45314;-59
2021/07/02 09:09:56;;;;;;;;;27.25;25.25;;;;;25.87;47.25;101010.03;5012686;27;45621;-60
2021/07/02 09:12:28;;;;;;;;;21.50;19.50;;;;;25.95;47.52;101005.41;4990026;28;45493;-59
2021/07/02 09:15:14;;;;;;;;;27.25;25.75;;;;;26.05;46.88;101001.09;5000396;28;45466;-59
2021/07/02 09:18:00;;;;;;;;;28.50;24.25;;;;;26.12;46.60;101005.56;5004588;28;46284;-60
2021/07/02 09:20:32;;;;;;;;;24.50;22.25;;;;;26.14;47.04;101009.69;4990888;28;45826;-59
2021/07/02 09:23:02;;;;;;;;;23.00;20.00;;;;;26.15;46.77;101014.03;5014535;27;45486;-60
2021/07/02 09:25:38;;;;;;;;;27.50;22.75;;;;;26.14;46.54;101001.63;5003684;27;45579;-60
2021/07/02 09:28:11;;;;;;;;;23.25;20.75;;;;;26.14;46.28;101001.63;5000670;28;45892;-60
2021/07/02 09:30:46;;;;;;;;;23.25;19.50;;;;;26.13;46.46;100996.44;5005897;28;45371;-59
2021/07/02 09:33:19;;;;;;;;;23.75;22.75;;;;;26.20;46.38;100992.63;5020723;28;45426;-59
2021/07/02 09:35:46;;;;;;;;;22.75;20.00;;;;;26.33;45.69;100985.41;5035040;28;45964;-60
2021/07/02 09:38:13;;;;;;;;;20.00;18.00;;;;;26.42;44.60;100975.13;5004757;28;46220;-60
2021/07/02 09:40:39;;;;;;;;;24.75;21.50;;;;;26.49;44.26;100982.06;5005502;27;45974;-59
2021/07/02 09:43:15;;;;;;;;;19.25;18.25;;;;;26.50;44.25;100986.34;5027824;28;63032;-59
2021/07/02 09:45:52;;;;;;;;;23.00;20.00;;;;;26.51;44.25;100981.81;5020051;27;45432;-60
2021/07/02 09:48:19;;;;;;;;;19.00;18.75;;;;;26.51;44.62;100982.63;5044605;28;47220;-59
2021/07/02 09:50:50;;;;;;;;;19.50;19.00;;;;;26.52;44.44;100981.56;5040157;28;45775;-60
2021/07/02 09:53:17;;;;;;;;;17.00;16.00;;;;;26.60;44.25;100984.97;5027905;28;45391;-60
2021/07/02 09:55:48;;;;;;;;;17.25;16.25;;;;;26.70;43.62;100977.13;5032199;28;45342;-60
2021/07/02 09:58:18;;;;;;;;;19.50;18.00;;;;;26.81;43.03;100981.75;5046026;28;45492;-60
2021/07/02 10:00:50;;;;;;;;;15.50;13.00;;;;;26.86;43.37;100980.22;5033380;28;45253;-59
2021/07/02 10:03:17;;;;;;;;;17.25;16.25;;;;;26.88;43.01;100973.53;5055826;27;45324;-60
2021/07/02 10:05:49;;;;;;;;;23.75;20.75;;;;;26.91;43.67;100969.56;5011148;28;45635;-60
2021/07/02 10:08:15;;;;;;;;;0.00;0.00;;;;;26.96;43.35;100969.69;5044045;28;47141;-60
2021/07/02 10:10:40;;;;;;;;;19.00;16.00;;;;;26.93;42.92;100973.66;5046111;28;45393;-59
2021/07/02 10:13:05;;;;;;;;;17.50;17.00;;;;;26.98;42.63;100972.97;5065992;27;62380;-59
2021/07/02 10:15:31;;;;;;;;;15.25;15.25;;;;;27.05;42.57;100975.53;5067449;28;63952;-59
2021/07/02 10:17:57;;;;;;;;;20.00;16.75;;;;;27.09;42.10;100974.00;4987550;27;68952;-60
2021/07/02 10:20:27;;;;;;;;;16.75;15.00;;;;;27.07;41.73;100968.84;5031455;27;45727;-59
2021/07/02 10:22:55;;;;;;;;;26.00;25.00;;;;;27.03;41.84;100964.97;5058639;27;45500;-60
2021/07/02 10:25:20;;;;;;;;;15.00;13.50;;;;;27.00;43.08;100973.56;4980640;27;45525;-61
2021/07/02 10:27:45;;;;;;;;;15.00;14.00;;;;;26.95;42.94;100970.75;4968639;28;46433;-58
2021/07/02 10:30:11;;;;;;;;;15.25;14.50;;;;;26.90;44.82;100971.44;4985226;28;45261;-60
2021/07/02 10:32:37;;;;;;;;;19.00;15.25;;;;;26.79;45.54;100975.75;5004099;28;45371;-60
2021/07/02 10:35:03;;;;;;;;;19.75;15.00;;;;;26.67;45.32;100972.22;4959738;28;45499;-59
2021/07/02 10:37:30;;;;;;;;;15.75;15.00;;;;;26.57;43.29;100970.09;4984921;28;46141;-60
2021/07/02 10:39:55;;;;;;;;;15.75;15.00;;;;;26.51;43.56;100971.84;4966657;28;45416;-60
2021/07/02 10:42:21;;;;;;;;;15.25;14.75;;;;;26.45;44.16;100972.78;5019127;27;45406;-60
2021/07/02 10:45:09;;;;;;;;;15.00;15.00;;;;;26.44;44.35;100968.47;5012320;27;45398;-60
2021/07/02 10:47:48;;;;;;;;;14.25;14.25;;;;;26.43;44.58;100974.91;5011464;28;45615;-59
2021/07/02 10:50:43;;;;;;;;;14.75;13.25;;;;;26.35;43.58;100978.72;5006395;28;45282;-60
2021/07/02 10:53:28;;;;;;;;;12.00;12.00;;;;;26.29;43.78;100973.44;5022288;28;45415;-60
2021/07/02 10:55:53;;;;;;;;;12.00;12.00;;;;;26.22;43.37;100978.94;4997184;28;45364;-59
2021/07/02 10:58:20;;;;;;;;;15.50;14.00;;;;;26.14;43.33;100980.06;4999545;28;46184;-60
2021/07/02 11:01:08;;;;;;;;;14.00;13.50;;;;;26.05;42.63;100978.72;5004316;28;45930;-59
2021/07/02 11:03:33;;;;;;;;;12.75;12.25;;;;;26.00;42.44;100968.66;5007457;28;45522;-59
2021/07/02 11:06:10;;;;;;;;;15.75;15.75;;;;;25.96;44.97;100972.03;5029462;27;49005;-60
2021/07/02 11:08:45;;;;;;;;;13.75;11.25;;;;;25.86;46.01;100969.88;5036975;27;46110;-60
2021/07/02 11:11:10;;;;;;;;;18.75;18.00;;;;;25.76;45.52;100973.13;5058246;27;45580;-60
2021/07/02 11:14:08;;;;;;;;;18.50;18.25;;;;;25.67;44.84;100969.94;4976693;28;66123;-60